Time;durP1;ratioP1;P1;durP2;ratioP2;P2;SDS_P1;SDS_P2;PMS_P1;PMS_P2;Temp;Humidity;BMP_temperature;BMP_pressure;BME280_temperature;BME280_humidity;BME280_pressure;Samples;Min_cycle;Max_cycle;Signal;HPM_P1;HPM_P2
2021/01/07 00:00:14;;;;;;;21.30;13.15;;;1.50;99.90;;;;;;5040667;28;20195;-93
2021/01/07 00:02:41;;;;;;;17.13;12.48;;;1.40;99.90;;;;;;5040549;28;20183;-92
2021/01/07 00:05:09;;;;;;;19.77;12.63;;;1.50;99.90;;;;;;5040785;28;20699;-93
2021/01/07 00:07:35;;;;;;;17.08;12.63;;;1.40;99.90;;;;;;5041760;28;20195;-94
2021/01/07 00:10:03;;;;;;;15.10;11.13;;;1.40;99.90;;;;;;5059642;28;20193;-93
2021/01/07 00:12:29;;;;;;;18.25;11.68;;;1.50;99.90;;;;;;5059183;28;20225;-93
2021/01/07 00:14:57;;;;;;;15.80;12.00;;;1.50;99.90;;;;;;5058741;28;20666;-93
2021/01/07 00:17:24;;;;;;;18.85;12.05;;;1.40;99.90;;;;;;5059284;28;20191;-92
2021/01/07 00:19:50;;;;;;;15.32;11.20;;;1.40;99.90;;;;;;5052548;28;20211;-93
2021/01/07 00:22:17;;;;;;;16.85;12.75;;;1.50;99.90;;;;;;5052042;28;20194;-93
2021/01/07 00:24:43;;;;;;;19.33;11.18;;;1.40;99.90;;;;;;5052794;28;20326;-92
2021/01/07 00:27:10;;;;;;;15.77;12.35;;;1.40;99.90;;;;;;5044036;28;20199;-93
2021/01/07 00:29:36;;;;;;;20.35;14.43;;;1.40;99.90;;;;;;5040075;28;20213;-93
2021/01/07 00:32:04;;;;;;;16.08;11.40;;;1.50;99.90;;;;;;5038648;28;20218;-93
2021/01/07 00:34:31;;;;;;;19.50;14.27;;;1.40;99.90;;;;;;5042412;28;20515;-93
2021/01/07 00:36:58;;;;;;;22.15;14.73;;;1.50;99.90;;;;;;5046138;28;20202;-93
2021/01/07 00:39:24;;;;;;;18.13;13.20;;;1.60;99.90;;;;;;5038695;28;20206;-92
2021/01/07 00:41:53;;;;;;;16.55;11.90;;;1.40;99.90;;;;;;5038622;28;20208;-93
2021/01/07 00:44:20;;;;;;;21.25;15.90;;;1.40;99.90;;;;;;5049410;28;20626;-94
2021/01/07 00:46:47;;;;;;;23.42;16.70;;;1.40;99.90;;;;;;5048427;28;20727;-94
2021/01/07 00:49:14;;;;;;;25.80;16.65;;;1.50;99.90;;;;;;5047596;28;20319;-93
2021/01/07 00:51:40;;;;;;;20.30;16.27;;;1.60;99.90;;;;;;5048466;28;20803;-93
2021/01/07 00:54:07;;;;;;;23.75;17.25;;;1.50;99.90;;;;;;5038110;28;20201;-93
2021/01/07 00:56:36;;;;;;;29.40;19.38;;;1.40;99.90;;;;;;5038069;28;20201;-93
2021/01/07 00:59:04;;;;;;;27.35;20.50;;;1.50;99.90;;;;;;5044421;28;20277;-93
2021/01/07 01:01:30;;;;;;;28.88;20.30;;;1.40;99.90;;;;;;5041621;28;20191;-93
2021/01/07 01:03:57;;;;;;;31.08;19.98;;;1.50;99.90;;;;;;5058828;28;20277;-92
2021/01/07 01:06:31;;;;;;;27.55;19.75;;;1.50;99.90;;;;;;5039731;28;20187;-92
2021/01/07 01:08:57;;;;;;;30.33;18.73;;;1.50;99.90;;;;;;5038306;28;20280;-93
2021/01/07 01:11:24;;;;;;;25.23;17.75;;;1.40;99.90;;;;;;5038435;28;20561;-94
2021/01/07 01:13:51;;;;;;;26.10;15.95;;;1.40;99.90;;;;;;5038951;28;20198;-93
2021/01/07 01:16:17;;;;;;;23.45;15.20;;;1.50;99.90;;;;;;5038450;28;20281;-94
2021/01/07 01:18:44;;;;;;;26.80;17.02;;;1.40;99.90;;;;;;5038295;28;20206;-93
2021/01/07 01:21:16;;;;;;;23.30;16.40;;;1.50;99.90;;;;;;5038053;28;20623;-92
2021/01/07 01:23:44;;;;;;;25.35;17.38;;;1.50;99.90;;;;;;5038504;28;20250;-92
2021/01/07 01:26:10;;;;;;;24.60;16.42;;;1.40;99.90;;;;;;5050580;28;20406;-93
2021/01/07 01:28:36;;;;;;;25.17;16.70;;;1.40;99.90;;;;;;5056083;28;20206;-93
2021/01/07 01:31:03;;;;;;;26.00;16.05;;;1.40;99.90;;;;;;5050480;28;20304;-93
2021/01/07 01:33:29;;;;;;;21.05;15.00;;;1.40;99.90;;;;;;5041926;28;20301;-93
2021/01/07 01:35:56;;;;;;;20.98;12.70;;;1.60;99.90;;;;;;5040694;28;20190;-92
2021/01/07 01:38:22;;;;;;;15.07;11.35;;;1.40;99.90;;;;;;5037625;28;20299;-93
2021/01/07 01:40:49;;;;;;;16.20;12.52;;;1.40;99.90;;;;;;5037856;28;20286;-93
2021/01/07 01:43:16;;;;;;;28.05;12.70;;;1.40;99.90;;;;;;5037552;28;20282;-93
2021/01/07 01:45:42;;;;;;;22.45;13.68;;;1.40;99.90;;;;;;5037816;28;20229;-94
2021/01/07 01:48:11;;;;;;;18.33;12.63;;;1.30;99.90;;;;;;5038214;28;20203;-93
2021/01/07 01:50:37;;;;;;;18.75;12.10;;;1.40;99.90;;;;;;5042613;28;20242;-93
2021/01/07 01:53:04;;;;;;;18.83;14.93;;;1.40;99.90;;;;;;5048070;28;20216;-93
2021/01/07 01:55:30;;;;;;;19.73;12.05;;;1.50;99.90;;;;;;5055995;28;20193;-93
2021/01/07 01:58:00;;;;;;;21.17;15.13;;;1.40;99.90;;;;;;5042888;28;20198;-94
2021/01/07 02:00:26;;;;;;;21.92;15.25;;;1.50;99.90;;;;;;5037035;28;20201;-93
2021/01/07 02:02:53;;;;;;;26.95;14.52;;;1.40;99.90;;;;;;5036846;28;20285;-93
2021/01/07 02:05:19;;;;;;;20.60;15.90;;;1.40;99.90;;;;;;5037327;28;20193;-92
2021/01/07 02:07:46;;;;;;;21.23;15.70;;;1.40;99.90;;;;;;5037763;28;20281;-94
2021/01/07 02:10:14;;;;;;;24.52;16.23;;;1.40;99.90;;;;;;5040816;28;20200;-94
2021/01/07 02:12:45;;;;;;;29.65;17.48;;;1.40;99.90;;;;;;5057725;28;20197;-93
2021/01/07 02:15:15;;;;;;;28.98;18.13;;;1.50;99.90;;;;;;5043281;28;20201;-93
2021/01/07 02:17:41;;;;;;;30.20;19.48;;;1.40;99.90;;;;;;5037764;28;20285;-94
2021/01/07 02:20:10;;;;;;;28.33;18.98;;;1.40;99.90;;;;;;5037740;28;20269;-93
2021/01/07 02:22:37;;;;;;;36.92;20.40;;;1.40;99.90;;;;;;5039801;28;20198;-93
2021/01/07 02:25:04;;;;;;;28.42;19.02;;;1.40;99.90;;;;;;5053631;28;20296;-94
2021/01/07 02:27:31;;;;;;;29.50;21.33;;;1.40;99.90;;;;;;5057831;28;20273;-92
2021/01/07 02:29:57;;;;;;;30.90;18.55;;;1.40;99.90;;;;;;5039415;28;20712;-93
2021/01/07 02:32:23;;;;;;;25.35;18.60;;;1.50;99.90;;;;;;5038355;28;20253;-93
2021/01/07 02:34:50;;;;;;;30.40;22.23;;;1.50;99.90;;;;;;5037497;28;20737;-92
2021/01/07 02:37:17;;;;;;;33.35;22.65;;;1.40;99.90;;;;;;5050624;28;20200;-94
2021/01/07 02:39:44;;;;;;;24.30;18.45;;;1.40;99.90;;;;;;5056731;28;20315;-93
2021/01/07 02:42:10;;;;;;;29.17;20.45;;;1.60;99.90;;;;;;5055730;28;20213;-93
2021/01/07 02:44:37;;;;;;;27.70;18.38;;;1.40;99.90;;;;;;5057358;28;20205;-93
2021/01/07 02:47:03;;;;;;;32.13;19.90;;;1.50;99.90;;;;;;5045285;28;20213;-94
2021/01/07 02:49:29;;;;;;;27.92;20.52;;;1.40;99.90;;;;;;5056680;28;20663;-93
2021/01/07 02:51:56;;;;;;;25.52;18.70;;;1.40;99.90;;;;;;5047896;28;20216;-93
2021/01/07 02:54:24;;;;;;;28.63;20.13;;;1.40;99.90;;;;;;5071351;28;20194;-93
2021/01/07 02:56:50;;;;;;;24.38;17.50;;;1.40;99.90;;;;;;5049160;28;20204;-94
2021/01/07 02:59:16;;;;;;;29.00;19.70;;;1.40;99.90;;;;;;5054920;28;20206;-92
2021/01/07 03:01:43;;;;;;;28.80;19.92;;;1.40;99.90;;;;;;5039666;28;20634;-93
2021/01/07 03:04:09;;;;;;;33.78;22.80;;;1.40;99.90;;;;;;5037312;28;20193;-92
2021/01/07 03:06:35;;;;;;;32.47;22.17;;;1.40;99.90;;;;;;5050446;28;20185;-93
2021/01/07 03:09:02;;;;;;;30.02;21.08;;;1.40;99.90;;;;;;5056580;28;20701;-93
2021/01/07 03:11:30;;;;;;;36.72;24.15;;;1.30;99.90;;;;;;5051543;28;20269;-93
2021/01/07 03:13:56;;;;;;;29.33;21.90;;;1.40;99.90;;;;;;5038477;28;20646;-93
2021/01/07 03:16:23;;;;;;;33.30;23.55;;;1.40;99.90;;;;;;5042527;28;20187;-93
2021/01/07 03:18:49;;;;;;;38.17;24.15;;;1.40;99.90;;;;;;5050266;28;20281;-93
2021/01/07 03:21:16;;;;;;;39.65;25.63;;;1.40;99.90;;;;;;5068976;28;20215;-94
2021/01/07 03:23:42;;;;;;;36.55;24.10;;;1.40;99.90;;;;;;5055994;28;20218;-93
2021/01/07 03:26:09;;;;;;;39.55;25.30;;;1.60;99.90;;;;;;5046180;28;20629;-94
2021/01/07 03:28:37;;;;;;;36.42;23.73;;;1.60;99.90;;;;;;5045779;28;20246;-95
2021/01/07 03:31:04;;;;;;;34.45;24.70;;;1.50;99.90;;;;;;5059944;28;20232;-93
2021/01/07 03:33:30;;;;;;;38.13;26.23;;;1.40;99.90;;;;;;5094852;28;20192;-93
2021/01/07 03:35:57;;;;;;;41.90;26.73;;;1.50;99.90;;;;;;5087401;28;20202;-92
2021/01/07 03:38:23;;;;;;;35.85;23.40;;;1.50;99.90;;;;;;5057775;28;20201;-93
2021/01/07 03:40:49;;;;;;;34.00;22.92;;;1.50;99.90;;;;;;5045871;28;20195;-94
2021/01/07 03:43:16;;;;;;;39.00;25.70;;;1.50;99.90;;;;;;5061577;28;20271;-93
2021/01/07 03:45:44;;;;;;;33.30;22.45;;;1.60;99.90;;;;;;5058409;28;20221;-94
2021/01/07 03:48:12;;;;;;;36.17;25.73;;;1.50;99.90;;;;;;5047993;28;20195;-94
2021/01/07 03:50:38;;;;;;;38.05;27.33;;;1.50;99.90;;;;;;5069684;28;20204;-94
2021/01/07 03:53:05;;;;;;;41.25;27.52;;;1.50;99.90;;;;;;5057285;28;20194;-94
2021/01/07 03:55:31;;;;;;;39.22;24.38;;;1.60;99.90;;;;;;5044675;28;20284;-94
2021/01/07 03:57:58;;;;;;;39.53;24.38;;;1.60;99.90;;;;;;5058574;28;20186;-93
2021/01/07 04:00:24;;;;;;;42.70;29.70;;;1.50;99.90;;;;;;5047903;28;20192;-93
2021/01/07 04:02:51;;;;;;;39.22;28.52;;;1.50;99.90;;;;;;5042688;28;20281;-93
2021/01/07 04:05:18;;;;;;;37.17;26.33;;;1.50;99.90;;;;;;5040495;28;20289;-93
2021/01/07 04:07:44;;;;;;;42.22;27.80;;;1.50;99.90;;;;;;5039876;28;20276;-92
2021/01/07 04:10:11;;;;;;;34.08;25.05;;;1.50;99.90;;;;;;5055045;28;20205;-93
2021/01/07 04:12:37;;;;;;;44.00;30.77;;;1.50;99.90;;;;;;5040128;28;20294;-94
2021/01/07 04:15:08;;;;;;;35.25;25.60;;;1.50;99.90;;;;;;5055188;28;20241;-93
2021/01/07 04:17:34;;;;;;;37.65;28.75;;;1.40;99.90;;;;;;5039765;28;20197;-93
2021/01/07 04:20:02;;;;;;;35.70;26.05;;;1.40;99.90;;;;;;5057579;28;20193;-92
2021/01/07 04:22:28;;;;;;;36.15;25.63;;;1.70;99.90;;;;;;5042857;28;20219;-94
2021/01/07 04:24:55;;;;;;;43.65;30.10;;;1.60;99.90;;;;;;5038118;28;20221;-93
2021/01/07 04:27:21;;;;;;;42.20;27.35;;;1.40;99.90;;;;;;5039688;28;20204;-93
2021/01/07 04:29:48;;;;;;;35.75;25.10;;;1.50;99.90;;;;;;5041260;28;20276;-93
2021/01/07 04:32:14;;;;;;;35.10;24.70;;;1.50;99.90;;;;;;5040000;28;20736;-93
2021/01/07 04:34:40;;;;;;;38.42;27.35;;;1.50;99.90;;;;;;5039532;28;20638;-93
2021/01/07 04:37:08;;;;;;;38.58;25.88;;;1.50;99.90;;;;;;5053979;28;20182;-93
2021/01/07 04:39:34;;;;;;;42.05;25.75;;;1.60;99.90;;;;;;5053895;28;20230;-92
2021/01/07 04:42:01;;;;;;;34.67;25.35;;;1.50;99.90;;;;;;5052814;28;20296;-92
2021/01/07 04:44:30;;;;;;;32.70;23.42;;;1.50;99.90;;;;;;5052181;28;20209;-93
2021/01/07 04:46:59;;;;;;;34.40;26.10;;;1.60;99.90;;;;;;5053635;28;20226;-92
2021/01/07 04:49:26;;;;;;;33.13;24.80;;;1.50;99.90;;;;;;5063682;28;20257;-92
2021/01/07 04:51:56;;;;;;;32.80;24.55;;;1.50;99.90;;;;;;5052298;28;20275;-92
2021/01/07 04:54:23;;;;;;;40.78;26.83;;;1.60;99.90;;;;;;5052919;28;20220;-92
2021/01/07 04:56:50;;;;;;;36.92;24.90;;;1.50;99.90;;;;;;5055260;28;20192;-94
2021/01/07 04:59:17;;;;;;;43.28;29.05;;;1.60;99.90;;;;;;5048067;28;20196;-93
2021/01/07 05:01:46;;;;;;;39.97;32.08;;;1.50;99.90;;;;;;5050075;28;20189;-93
2021/01/07 05:04:14;;;;;;;63.47;43.90;;;1.50;99.90;;;;;;5061568;28;20285;-93
2021/01/07 05:06:42;;;;;;;56.80;42.50;;;1.50;99.90;;;;;;5061158;28;20328;-92
2021/01/07 05:09:08;;;;;;;31.38;22.55;;;1.50;99.90;;;;;;5050465;28;20194;-94
2021/01/07 05:11:36;;;;;;;65.70;44.67;;;1.60;99.90;;;;;;5059210;28;20299;-93
2021/01/07 05:14:04;;;;;;;52.78;31.58;;;1.60;99.90;;;;;;5040167;28;20191;-94
2021/01/07 05:16:31;;;;;;;46.15;36.50;;;1.60;99.90;;;;;;5053078;28;20253;-93
2021/01/07 05:18:58;;;;;;;43.67;30.25;;;1.60;99.90;;;;;;5052304;28;20686;-94
2021/01/07 05:21:25;;;;;;;45.83;31.85;;;1.50;99.90;;;;;;5053284;28;20194;-94
2021/01/07 05:23:53;;;;;;;36.50;28.60;;;1.60;99.90;;;;;;5038506;28;20305;-93
2021/01/07 05:26:21;;;;;;;41.15;24.30;;;1.60;99.90;;;;;;5043746;28;20275;-92
2021/01/07 05:28:50;;;;;;;48.20;31.55;;;1.50;99.90;;;;;;5048462;28;20704;-94
2021/01/07 05:31:18;;;;;;;33.40;25.60;;;1.70;99.90;;;;;;5048578;28;20301;-93
2021/01/07 05:33:45;;;;;;;27.58;23.08;;;1.70;99.90;;;;;;5041062;28;20225;-94
2021/01/07 05:36:23;;;;;;;31.92;23.65;;;1.50;99.90;;;;;;5040136;28;20197;-93
2021/01/07 05:38:50;;;;;;;33.63;23.02;;;1.50;99.90;;;;;;5038682;28;20190;-93
2021/01/07 05:41:19;;;;;;;36.70;26.50;;;1.50;99.90;;;;;;5038149;28;20195;-93
2021/01/07 05:43:45;;;;;;;37.78;27.75;;;1.50;99.90;;;;;;5038205;28;20278;-93
2021/01/07 05:46:13;;;;;;;36.22;24.33;;;1.50;99.90;;;;;;5037026;28;20311;-93
2021/01/07 05:48:40;;;;;;;40.08;26.00;;;1.50;99.90;;;;;;5037213;28;20187;-94
2021/01/07 05:51:06;;;;;;;34.65;23.35;;;1.50;99.90;;;;;;5038447;28;20316;-93
2021/01/07 05:53:33;;;;;;;28.98;22.40;;;1.60;99.90;;;;;;5063014;28;20186;-93
2021/01/07 05:56:04;;;;;;;35.45;24.17;;;1.50;99.90;;;;;;5044116;28;20261;-93
2021/01/07 05:58:33;;;;;;;35.90;23.10;;;1.50;99.90;;;;;;5057429;28;20523;-93
2021/01/07 06:01:02;;;;;;;37.33;24.73;;;1.50;99.90;;;;;;5040842;28;20195;-93
2021/01/07 06:03:34;;;;;;;38.80;24.55;;;1.50;99.90;;;;;;5043490;28;20209;-93
2021/01/07 06:06:01;;;;;;;34.33;25.25;;;1.70;99.90;;;;;;5041131;28;20614;-92
2021/01/07 06:08:28;;;;;;;38.10;27.10;;;1.60;99.90;;;;;;5039735;28;20328;-94
2021/01/07 06:10:54;;;;;;;40.10;28.42;;;1.50;99.90;;;;;;5040804;28;20273;-92
2021/01/07 06:13:21;;;;;;;44.33;31.10;;;1.50;99.90;;;;;;5055307;28;20201;-92
2021/01/07 06:15:49;;;;;;;45.70;29.67;;;1.50;99.90;;;;;;5058884;28;20204;-91
2021/01/07 06:18:17;;;;;;;38.38;27.52;;;1.50;99.90;;;;;;5068215;28;20228;-90
2021/01/07 06:20:44;;;;;;;41.60;29.75;;;1.50;99.90;;;;;;5057650;28;20193;-90
2021/01/07 06:23:19;;;;;;;39.97;27.75;;;1.60;99.90;;;;;;5049423;28;20243;-90
2021/01/07 06:25:46;;;;;;;39.53;28.60;;;1.50;99.90;;;;;;5042050;28;20245;-90
2021/01/07 06:28:26;;;;;;;36.92;26.95;;;1.50;99.90;;;;;;5043232;28;20194;-91
2021/01/07 06:30:55;;;;;;;38.38;27.30;;;1.50;99.90;;;;;;5038642;28;20265;-90
2021/01/07 06:33:21;;;;;;;39.13;29.38;;;1.50;99.90;;;;;;5053805;28;20194;-91
2021/01/07 06:35:49;;;;;;;41.30;27.30;;;1.50;99.90;;;;;;5039956;28;20217;-91
2021/01/07 06:38:30;;;;;;;44.47;29.27;;;1.50;99.90;;;;;;5041882;28;20190;-90
2021/01/07 06:41:01;;;;;;;36.42;25.63;;;1.40;99.90;;;;;;5034306;28;20199;-90
2021/01/07 06:43:29;;;;;;;47.10;29.25;;;1.40;99.90;;;;;;5050463;28;20189;-90
2021/01/07 06:45:56;;;;;;;42.58;27.15;;;1.40;99.90;;;;;;5050889;28;20198;-90
2021/01/07 06:48:29;;;;;;;32.10;22.90;;;1.50;99.90;;;;;;5054852;28;20256;-90
2021/01/07 06:50:58;;;;;;;37.25;27.40;;;1.40;99.90;;;;;;5047139;28;20213;-90
2021/01/07 06:53:25;;;;;;;43.42;26.75;;;1.40;99.90;;;;;;5054854;28;20189;-90
2021/01/07 06:56:14;;;;;;;42.65;26.63;;;1.40;99.90;;;;;;5019916;28;20200;-90
2021/01/07 06:58:42;;;;;;;34.30;22.67;;;1.40;99.90;;;;;;5040407;28;20204;-90
2021/01/07 07:01:10;;;;;;;35.85;24.35;;;1.40;99.90;;;;;;5034192;28;20558;-90
2021/01/07 07:03:47;;;;;;;36.20;24.60;;;1.40;99.90;;;;;;5049994;28;20200;-90
2021/01/07 07:06:17;;;;;;;31.10;22.67;;;1.40;99.90;;;;;;5055799;28;20186;-90
2021/01/07 07:08:46;;;;;;;34.53;25.35;;;1.40;99.90;;;;;;5034500;28;20193;-90
2021/01/07 07:11:26;;;;;;;35.40;23.88;;;1.30;99.90;;;;;;5041811;28;20213;-88
2021/01/07 07:13:58;;;;;;;39.63;26.25;;;1.40;99.90;;;;;;5033052;28;20205;-88
2021/01/07 07:16:25;;;;;;;35.40;23.95;;;1.30;99.90;;;;;;5044615;28;20192;-88
2021/01/07 07:18:56;;;;;;;30.20;22.73;;;1.40;99.90;;;;;;5044773;28;20225;-88
2021/01/07 07:21:24;;;;;;;31.83;22.13;;;1.40;99.90;;;;;;5039260;28;20209;-89
2021/01/07 07:23:51;;;;;;;33.45;21.92;;;1.40;99.90;;;;;;5038549;28;20221;-89
2021/01/07 07:26:31;;;;;;;30.65;21.48;;;1.40;99.90;;;;;;5038658;28;20197;-89
2021/01/07 07:29:03;;;;;;;29.20;19.98;;;1.40;99.90;;;;;;5032911;28;20186;-90
2021/01/07 07:31:43;;;;;;;24.55;18.70;;;1.40;99.90;;;;;;5034081;28;20222;-89
2021/01/07 07:34:11;;;;;;;35.88;23.77;;;1.40;99.90;;;;;;5034330;28;20225;-89
2021/01/07 07:36:38;;;;;;;31.45;21.83;;;1.30;99.90;;;;;;5043495;28;20236;-89
2021/01/07 07:39:06;;;;;;;34.45;23.25;;;1.40;99.90;;;;;;5046403;28;20422;-88
2021/01/07 07:41:42;;;;;;;37.80;25.50;;;1.40;99.90;;;;;;5038887;28;20200;-90
2021/01/07 07:44:09;;;;;;;38.53;23.98;;;1.40;99.90;;;;;;5041707;28;20252;-89
2021/01/07 07:46:37;;;;;;;31.65;21.10;;;1.40;99.90;;;;;;5037259;28;20213;-91
2021/01/07 07:49:05;;;;;;;30.80;20.58;;;1.40;99.90;;;;;;5044703;28;20240;-91
2021/01/07 07:51:31;;;;;;;34.33;23.02;;;1.40;99.90;;;;;;5060657;28;20220;-90
2021/01/07 07:54:06;;;;;;;31.80;19.63;;;1.40;99.90;;;;;;5061247;28;20193;-90
2021/01/07 07:56:33;;;;;;;35.55;19.27;;;1.40;99.90;;;;;;5047797;28;20262;-89
2021/01/07 07:59:01;;;;;;;33.08;19.42;;;1.40;99.90;;;;;;5055031;28;20202;-88
2021/01/07 08:01:37;;;;;;;29.50;19.17;;;1.40;99.90;;;;;;5057381;28;20197;-89
2021/01/07 08:04:04;;;;;;;29.15;19.25;;;1.30;99.90;;;;;;5038799;28;20199;-89
2021/01/07 08:06:30;;;;;;;26.67;18.17;;;1.40;99.90;;;;;;5041039;28;20202;-89
2021/01/07 08:09:05;;;;;;;26.92;19.40;;;1.40;99.90;;;;;;5039194;28;20204;-87
2021/01/07 08:11:33;;;;;;;26.77;18.02;;;1.40;99.90;;;;;;5041665;28;20206;-90
2021/01/07 08:13:59;;;;;;;21.95;17.30;;;1.40;99.90;;;;;;5044901;28;20273;-90
2021/01/07 08:16:27;;;;;;;24.48;17.20;;;1.50;99.90;;;;;;5059803;28;20190;-89
2021/01/07 08:18:53;;;;;;;27.38;18.10;;;1.50;99.90;;;;;;5058759;28;20204;-89
2021/01/07 08:21:19;;;;;;;24.52;16.90;;;1.50;99.90;;;;;;5044866;28;20542;-87
2021/01/07 08:23:46;;;;;;;24.60;17.45;;;1.60;99.90;;;;;;5039338;28;20645;-92
2021/01/07 08:26:26;;;;;;;27.17;17.50;;;1.50;99.90;;;;;;5040339;28;20194;-93
2021/01/07 08:28:52;;;;;;;25.90;16.98;;;1.50;99.90;;;;;;5038731;28;20696;-92
2021/01/07 08:31:20;;;;;;;22.65;16.15;;;1.50;99.90;;;;;;5038834;28;20222;-92
2021/01/07 08:33:48;;;;;;;18.40;13.35;;;1.60;99.90;;;;;;5038584;28;20204;-92
2021/01/07 08:36:15;;;;;;;31.80;17.15;;;1.60;99.90;;;;;;5038816;28;20257;-92
2021/01/07 08:38:47;;;;;;;24.27;15.93;;;1.60;99.90;;;;;;5039377;28;20205;-92
2021/01/07 08:41:16;;;;;;;22.17;15.10;;;1.60;99.90;;;;;;5038863;28;20210;-92
2021/01/07 08:43:44;;;;;;;27.73;17.60;;;1.60;99.90;;;;;;5038975;28;20194;-92
2021/01/07 08:46:12;;;;;;;22.77;14.60;;;1.70;99.90;;;;;;5039168;28;20234;-92
2021/01/07 08:48:39;;;;;;;22.30;15.68;;;1.70;99.90;;;;;;5038022;28;20202;-92
2021/01/07 08:51:17;;;;;;;22.20;14.07;;;1.70;99.90;;;;;;5048211;28;20633;-91
2021/01/07 08:53:51;;;;;;;26.77;16.08;;;1.70;99.90;;;;;;5048797;28;20202;-91
2021/01/07 08:56:39;;;;;;;22.63;15.80;;;1.70;99.90;;;;;;5058492;28;20198;-92
2021/01/07 08:59:23;;;;;;;20.25;13.27;;;1.70;99.90;;;;;;5055604;28;20193;-91
2021/01/07 09:01:50;;;;;;;17.00;11.60;;;1.70;99.90;;;;;;5055097;28;20188;-92
2021/01/07 09:04:28;;;;;;;18.80;13.45;;;1.70;99.90;;;;;;5054539;28;20285;-92
2021/01/07 09:06:56;;;;;;;16.35;12.23;;;1.70;99.90;;;;;;5057822;28;20208;-90
2021/01/07 09:09:23;;;;;;;16.30;11.60;;;1.70;99.90;;;;;;5058340;28;20339;-93
2021/01/07 09:11:50;;;;;;;16.67;11.55;;;1.80;99.90;;;;;;5057168;28;20217;-93
2021/01/07 09:14:16;;;;;;;16.17;11.65;;;1.80;99.90;;;;;;5057783;28;20201;-93
2021/01/07 09:16:58;;;;;;;16.70;11.18;;;1.70;99.90;;;;;;5058135;28;20247;-92
2021/01/07 09:19:24;;;;;;;20.00;11.40;;;1.70;99.90;;;;;;5058837;28;20552;-93
2021/01/07 09:22:00;;;;;;;20.30;13.98;;;1.70;99.90;;;;;;5063225;28;20257;-93
2021/01/07 09:24:32;;;;;;;21.25;12.25;;;1.60;99.90;;;;;;5073635;28;20213;-93
2021/01/07 09:27:06;;;;;;;15.38;11.35;;;1.60;99.90;;;;;;5059558;28;20220;-92
2021/01/07 09:29:33;;;;;;;17.30;12.73;;;1.60;99.90;;;;;;5057083;28;20208;-92
2021/01/07 09:31:59;;;;;;;16.27;12.07;;;1.70;99.90;;;;;;5050217;28;20240;-90
2021/01/07 09:34:26;;;;;;;19.27;12.10;;;1.70;99.90;;;;;;5039486;28;20537;-89
2021/01/07 09:36:52;;;;;;;18.48;14.02;;;1.70;99.90;;;;;;5058433;28;20186;-90
2021/01/07 09:39:18;;;;;;;26.10;14.07;;;1.70;99.90;;;;;;5056719;28;20567;-93
2021/01/07 09:41:45;;;;;;;19.90;14.68;;;1.80;99.90;;;;;;5061128;28;20315;-93
2021/01/07 09:44:13;;;;;;;19.05;14.75;;;2.00;99.90;;;;;;5051908;28;20210;-93
2021/01/07 09:46:39;;;;;;;21.95;15.75;;;2.00;99.90;;;;;;5045859;28;20250;-91
2021/01/07 09:49:06;;;;;;;51.78;32.75;;;1.90;99.90;;;;;;5037834;28;20202;-90
2021/01/07 09:51:32;;;;;;;31.60;23.00;;;2.00;99.90;;;;;;5046502;28;20219;-90
2021/01/07 09:53:58;;;;;;;23.85;16.73;;;2.00;99.90;;;;;;5047983;28;20183;-92
2021/01/07 09:56:25;;;;;;;32.40;26.00;;;2.00;99.90;;;;;;5056350;28;20216;-93
2021/01/07 09:58:51;;;;;;;27.10;17.23;;;2.00;99.90;;;;;;5037544;28;20289;-92
2021/01/07 10:01:19;;;;;;;23.33;18.77;;;2.00;99.90;;;;;;5046167;28;20200;-92
2021/01/07 10:03:45;;;;;;;20.73;15.68;;;2.00;99.90;;;;;;5044079;28;20645;-92
2021/01/07 10:06:12;;;;;;;24.70;14.55;;;2.00;99.90;;;;;;5037864;28;20275;-89
2021/01/07 10:08:38;;;;;;;23.17;17.25;;;1.90;99.90;;;;;;5056581;28;20604;-93
2021/01/07 10:11:08;;;;;;;25.98;18.20;;;1.90;99.90;;;;;;5078223;28;20217;-93
2021/01/07 10:13:34;;;;;;;24.35;17.20;;;1.90;99.90;;;;;;5062141;28;20553;-94
2021/01/07 10:16:00;;;;;;;24.98;18.50;;;1.90;99.90;;;;;;5048526;28;20325;-95
2021/01/07 10:18:28;;;;;;;30.83;21.45;;;1.80;99.90;;;;;;5043487;28;20280;-87
2021/01/07 10:21:17;;;;;;;23.30;17.50;;;1.80;99.90;;;;;;5050920;28;20192;-94
2021/01/07 10:23:45;;;;;;;25.23;19.55;;;1.80;99.90;;;;;;5042403;28;20561;-93
2021/01/07 10:26:11;;;;;;;28.60;19.67;;;1.80;99.90;;;;;;5039059;28;20195;-92
2021/01/07 10:28:38;;;;;;;25.10;16.45;;;1.80;99.90;;;;;;5048281;28;20195;-90
2021/01/07 10:31:05;;;;;;;22.95;17.40;;;1.80;99.90;;;;;;5058718;28;20205;-90
2021/01/07 10:33:33;;;;;;;25.80;18.27;;;1.80;99.90;;;;;;5054604;28;20254;-91
2021/01/07 10:35:59;;;;;;;27.10;17.58;;;1.80;99.90;;;;;;5055698;28;20714;-90
2021/01/07 10:38:26;;;;;;;27.73;18.98;;;1.80;99.90;;;;;;5057477;28;20198;-91
2021/01/07 10:40:54;;;;;;;27.35;18.52;;;1.90;99.90;;;;;;5057968;28;20292;-93
2021/01/07 10:43:21;;;;;;;26.42;19.85;;;1.90;99.90;;;;;;5058390;28;20190;-91
2021/01/07 10:45:51;;;;;;;23.10;16.23;;;2.00;99.90;;;;;;5064388;28;20194;-89
2021/01/07 10:48:20;;;;;;;26.30;18.10;;;2.00;99.90;;;;;;5062578;28;20195;-91
2021/01/07 10:50:49;;;;;;;25.15;19.20;;;2.00;99.90;;;;;;5055063;28;20187;-92
2021/01/07 10:53:52;;;;;;;21.90;15.85;;;2.00;99.90;;;;;;5046705;28;20195;-91
2021/01/07 10:56:26;;;;;;;26.33;18.60;;;2.00;99.90;;;;;;5042108;28;20265;-93
2021/01/07 10:59:03;;;;;;;22.60;18.33;;;1.90;99.90;;;;;;5044165;28;20201;-93
2021/01/07 11:02:06;;;;;;;25.23;19.33;;;2.00;99.90;;;;;;5041172;28;20234;-91
2021/01/07 11:05:07;;;;;;;25.02;20.00;;;1.90;99.90;;;;;;5052961;28;20306;-92
2021/01/07 11:07:43;;;;;;;24.73;19.02;;;1.90;99.90;;;;;;5035214;28;20209;-91
2021/01/07 11:10:11;;;;;;;28.65;20.73;;;1.80;99.90;;;;;;5044435;28;20194;-91
2021/01/07 11:12:43;;;;;;;31.58;23.35;;;1.80;99.90;;;;;;5035787;28;20230;-93
2021/01/07 11:15:13;;;;;;;32.92;21.50;;;1.80;99.90;;;;;;5036072;28;20194;-91
2021/01/07 11:17:47;;;;;;;32.05;22.80;;;1.80;99.90;;;;;;5035491;28;20194;-91
2021/01/07 11:20:14;;;;;;;36.78;23.52;;;1.90;99.90;;;;;;5052160;28;20327;-93
2021/01/07 11:22:44;;;;;;;35.00;23.52;;;2.00;99.90;;;;;;5061661;28;20190;-92
2021/01/07 11:25:12;;;;;;;31.48;21.98;;;2.10;99.90;;;;;;5042592;28;20293;-92
2021/01/07 11:27:40;;;;;;;33.13;22.65;;;2.10;99.90;;;;;;5051145;28;20214;-93
2021/01/07 11:30:08;;;;;;;30.55;21.33;;;2.10;99.90;;;;;;5049284;28;20602;-94
2021/01/07 11:32:37;;;;;;;29.58;21.30;;;2.10;99.90;;;;;;5043987;28;20223;-91
2021/01/07 11:35:07;;;;;;;29.77;22.42;;;2.20;99.90;;;;;;5050554;28;20201;-91
2021/01/07 11:37:52;;;;;;;30.45;22.08;;;2.20;99.90;;;;;;5056514;28;20252;-93
2021/01/07 11:40:36;;;;;;;27.58;21.25;;;2.20;99.90;;;;;;5071826;28;20182;-93
2021/01/07 11:43:29;;;;;;;29.33;22.05;;;2.20;99.90;;;;;;5074072;28;20218;-95
2021/01/07 11:49:06;;;;;;;29.05;20.05;;;2.30;99.90;;;;;;5050318;28;20183;-94
2021/01/07 11:51:44;;;;;;;29.08;19.88;;;2.30;99.90;;;;;;5053505;28;20235;-95
2021/01/07 11:54:16;;;;;;;29.20;18.83;;;2.40;99.90;;;;;;5055268;28;20202;-95
2021/01/07 11:56:47;;;;;;;23.45;18.67;;;2.40;99.90;;;;;;5055239;28;20671;-94
2021/01/07 11:59:32;;;;;;;24.42;16.95;;;2.40;99.90;;;;;;5059212;28;20175;-94
2021/01/07 12:01:58;;;;;;;21.02;14.90;;;2.40;99.90;;;;;;5099569;22;20195;-95
2021/01/07 12:04:37;;;;;;;19.17;15.23;;;2.50;99.90;;;;;;5063923;28;20178;-95
2021/01/07 12:07:14;;;;;;;20.75;14.55;;;2.50;99.90;;;;;;5067816;28;20193;-96
2021/01/07 12:09:44;;;;;;;19.42;14.15;;;2.50;99.90;;;;;;5060138;28;20259;-94
2021/01/07 12:12:16;;;;;;;17.92;14.25;;;2.50;99.90;;;;;;5057707;28;20230;-96
2021/01/07 12:15:02;;;;;;;18.73;14.10;;;2.50;99.90;;;;;;5053528;28;20196;-95
2021/01/07 12:17:38;;;;;;;22.17;16.08;;;2.50;99.90;;;;;;5065758;28;20188;-94
2021/01/07 12:20:38;;;;;;;20.30;14.82;;;2.50;99.90;;;;;;5056971;28;20209;-95
2021/01/07 12:23:15;;;;;;;24.50;17.80;;;2.50;99.90;;;;;;5056327;28;20237;-94
2021/01/07 12:26:03;;;;;;;26.48;17.02;;;2.50;99.90;;;;;;5067584;28;20198;-93
2021/01/07 12:31:50;;;;;;;24.48;17.00;;;2.50;99.90;;;;;;5075821;28;20210;-94
2021/01/07 12:34:26;;;;;;;25.05;16.92;;;2.50;99.90;;;;;;5046830;28;20192;-94
2021/01/07 12:37:09;;;;;;;23.00;17.60;;;2.50;99.90;;;;;;5053087;28;20195;-94
2021/01/07 12:39:45;;;;;;;21.45;16.40;;;2.50;99.90;;;;;;5051757;28;20195;-94
2021/01/07 12:42:16;;;;;;;20.77;15.93;;;2.40;99.90;;;;;;5064310;28;20198;-94
2021/01/07 12:44:47;;;;;;;23.63;16.25;;;2.40;99.90;;;;;;5077867;28;20244;-93
2021/01/07 12:47:15;;;;;;;21.27;15.55;;;2.30;99.90;;;;;;5074641;28;20221;-93
2021/01/07 12:49:45;;;;;;;23.20;16.40;;;2.40;99.90;;;;;;5071234;28;20602;-94
2021/01/07 12:52:12;;;;;;;23.30;16.15;;;2.30;99.90;;;;;;5070132;28;20221;-93